createdAt,value
2017-03-31T00:00:10.631Z,56.69
2017-03-31T00:00:51.042Z,56.24
2017-03-31T00:01:31.478Z,56.62
2017-03-31T00:02:11.883Z,56.05
2017-03-31T00:02:52.270Z,56.05
2017-03-31T00:03:32.977Z,55.96
2017-03-31T00:04:14.386Z,55.96
2017-03-31T00:04:54.757Z,55.76
2017-03-31T00:05:35.589Z,55.76
2017-03-31T00:06:18.984Z,55.86
2017-03-31T00:06:59.367Z,55.76
2017-03-31T00:07:40.586Z,55.47
2017-03-31T00:08:20.974Z,55.57
2017-03-31T00:09:01.407Z,55.19
2017-03-31T00:09:41.766Z,55.29
2017-03-31T00:10:22.216Z,55.1
2017-03-31T00:11:02.622Z,55.38
2017-03-31T00:11:43.008Z,55.29
2017-03-31T00:12:23.433Z,55
2017-03-31T00:13:03.880Z,55.1
2017-03-31T00:13:44.259Z,55.1
2017-03-31T00:14:24.683Z,54.9
2017-03-31T00:15:05.063Z,55.19
2017-03-31T00:15:45.506Z,55.19
2017-03-31T00:16:25.896Z,55.38
2017-03-31T00:17:06.281Z,55.38
2017-03-31T00:17:46.729Z,55.19
2017-03-31T00:18:27.138Z,55.19
2017-03-31T00:19:07.549Z,55.38
2017-03-31T00:19:48.033Z,55.38
2017-03-31T00:20:28.407Z,55.38
2017-03-31T00:21:08.788Z,55.29
2017-03-31T00:21:49.235Z,55.38
2017-03-31T00:22:29.656Z,55.29
2017-03-31T00:23:10.068Z,54.71
2017-03-31T00:23:50.538Z,54.8
2017-03-31T00:24:30.936Z,54.52
2017-03-31T00:25:11.336Z,54.9
2017-03-31T00:25:51.758Z,54.9
2017-03-31T00:26:32.161Z,54.71
2017-03-31T00:27:12.559Z,55.19
2017-03-31T00:27:52.982Z,55.19
2017-03-31T00:28:33.413Z,55.19
2017-03-31T00:29:13.815Z,55.29
2017-03-31T00:29:54.193Z,55.19
2017-03-31T00:30:34.666Z,55.16
2017-03-31T00:31:15.116Z,55.1
2017-03-31T00:31:55.469Z,55.1
2017-03-31T00:32:35.871Z,55.16
2017-03-31T00:33:16.258Z,55.16
2017-03-31T00:33:56.687Z,55.07
2017-03-31T00:34:37.100Z,55.16
2017-03-31T00:35:17.504Z,55.16
2017-03-31T00:35:57.953Z,55.16
2017-03-31T00:36:38.365Z,55.35
2017-03-31T00:37:18.747Z,55.45
2017-03-31T00:37:59.139Z,55.07
2017-03-31T00:38:39.512Z,55.16
2017-03-31T00:39:19.939Z,55.35
2017-03-31T00:40:00.348Z,55.26
2017-03-31T00:40:40.788Z,55.16
2017-03-31T00:41:21.200Z,55.26
2017-03-31T00:42:01.621Z,55.35
2017-03-31T00:42:41.968Z,54.88
2017-03-31T00:43:22.344Z,55.35
2017-03-31T00:44:02.786Z,55.35
2017-03-31T00:44:43.141Z,55.54
2017-03-31T00:45:23.646Z,55.93
2017-03-31T00:46:03.997Z,55.64
2017-03-31T00:46:44.377Z,55.83
2017-03-31T00:47:24.804Z,55.54
2017-03-31T00:48:05.217Z,55.45
2017-03-31T00:48:45.650Z,55.35
2017-03-31T00:49:26.066Z,55.74
2017-03-31T00:50:06.416Z,55.93
2017-03-31T00:50:46.854Z,55.93
2017-03-31T00:51:27.265Z,55.74
2017-03-31T00:52:07.699Z,55.93
2017-03-31T00:52:48.110Z,56.12
2017-03-31T00:53:28.540Z,56.09
2017-03-31T00:54:08.944Z,56.18
2017-03-31T00:54:49.373Z,56.18
2017-03-31T00:55:29.781Z,56.5
2017-03-31T00:56:10.214Z,56.57
2017-03-31T00:56:50.682Z,56.18
2017-03-31T00:57:31.014Z,56.38
2017-03-31T00:58:11.431Z,56.28
2017-03-31T00:58:51.899Z,56.28
2017-03-31T00:59:32.240Z,56.47
2017-03-31T01:00:12.623Z,56.57
2017-03-31T01:00:53.072Z,56.47
2017-03-31T01:01:33.495Z,56.09
2017-03-31T01:02:13.843Z,56.57
2017-03-31T01:02:54.300Z,56.47
2017-03-31T01:03:34.700Z,56.47
2017-03-31T01:04:15.093Z,57.04
2017-03-31T01:04:55.489Z,57.14
2017-03-31T01:05:35.899Z,57.14
2017-03-31T01:06:16.400Z,57.04
2017-03-31T01:06:56.758Z,56.85
2017-03-31T01:07:37.163Z,56.38
2017-03-31T01:08:17.531Z,56.09
2017-03-31T01:08:57.967Z,56.18
2017-03-31T01:09:38.305Z,56.38
2017-03-31T01:10:18.759Z,56.57
2017-03-31T01:10:59.155Z,56.47
2017-03-31T01:11:39.576Z,56.47
2017-03-31T01:12:19.970Z,56.67
2017-03-31T01:13:00.423Z,56.28
2017-03-31T01:13:40.827Z,56.38
2017-03-31T01:14:21.207Z,56.47
2017-03-31T01:15:01.633Z,55.8
2017-03-31T01:15:42.025Z,56.09
2017-03-31T01:16:22.445Z,56.09
2017-03-31T01:17:02.889Z,56.21
2017-03-31T01:17:43.250Z,56.02
2017-03-31T01:18:23.638Z,55.74
2017-03-31T01:19:04.105Z,55.64
2017-03-31T01:19:44.479Z,55.35
2017-03-31T01:20:24.824Z,55.74
2017-03-31T01:21:05.263Z,55.64
2017-03-31T01:21:45.674Z,55.83
2017-03-31T01:22:26.080Z,55.83
2017-03-31T01:23:06.630Z,55.64
2017-03-31T01:23:47.012Z,55.93
2017-03-31T01:24:27.410Z,55.83
2017-03-31T01:25:07.790Z,55.45
2017-03-31T01:25:48.260Z,55.74
2017-03-31T01:26:28.659Z,55.16
2017-03-31T01:27:09.068Z,55.26
2017-03-31T01:27:49.436Z,55.45
2017-03-31T01:28:29.820Z,55.16
2017-03-31T01:29:10.276Z,55.07
2017-03-31T01:29:50.661Z,54.97
2017-03-31T01:30:31.121Z,55.26
2017-03-31T01:31:11.481Z,55.35
2017-03-31T01:31:51.961Z,54.78
2017-03-31T01:32:32.375Z,54.88
2017-03-31T01:33:12.756Z,54.78
2017-03-31T01:33:53.161Z,54.59
2017-03-31T01:34:33.543Z,54.68
2017-03-31T01:35:13.958Z,54.68
2017-03-31T01:35:54.409Z,54.59
2017-03-31T01:36:34.820Z,54.68
2017-03-31T01:37:15.214Z,54.68
2017-03-31T01:37:55.642Z,54.78
2017-03-31T01:38:36.047Z,54.78
2017-03-31T01:39:16.465Z,54.97
2017-03-31T01:39:56.894Z,54.97
2017-03-31T01:40:37.328Z,54.88
2017-03-31T01:41:17.692Z,54.97
2017-03-31T01:41:58.098Z,54.78
2017-03-31T01:42:38.519Z,54.68
2017-03-31T01:43:18.979Z,54.97
2017-03-31T01:43:59.342Z,54.59
2017-03-31T01:44:39.774Z,54.49
2017-03-31T01:45:20.147Z,54.49
2017-03-31T01:46:00.562Z,54.59
2017-03-31T01:46:40.960Z,54.68
2017-03-31T01:47:21.412Z,54.59
2017-03-31T01:48:01.808Z,54.49
2017-03-31T01:48:42.266Z,54.68
2017-03-31T01:49:22.677Z,54.78
2017-03-31T01:50:03.088Z,54.68
2017-03-31T01:50:43.515Z,54.68
2017-03-31T01:51:23.918Z,54.68
2017-03-31T01:52:04.353Z,54.97
2017-03-31T01:52:44.754Z,54.97
2017-03-31T01:53:25.725Z,55.07
2017-03-31T01:54:06.141Z,54.97
2017-03-31T01:54:46.547Z,54.97
2017-03-31T01:55:26.970Z,54.78
2017-03-31T01:56:07.377Z,55.07
2017-03-31T01:56:47.784Z,54.78
2017-03-31T01:57:28.183Z,54.59
2017-03-31T01:58:08.622Z,54.68
2017-03-31T01:58:49.029Z,54.68
2017-03-31T01:59:29.417Z,54.78
2017-03-31T02:00:09.820Z,54.88
2017-03-31T02:00:50.265Z,54.88
2017-03-31T02:01:30.768Z,54.88
2017-03-31T02:02:11.107Z,54.97
2017-03-31T02:02:51.558Z,54.68
2017-03-31T02:03:31.928Z,54.78
2017-03-31T02:04:12.348Z,54.68
2017-03-31T02:04:52.799Z,54.68
2017-03-31T02:05:33.201Z,54.78
2017-03-31T02:06:13.622Z,54.68
2017-03-31T02:06:54.038Z,54.49
2017-03-31T02:07:34.388Z,54.97
2017-03-31T02:08:14.855Z,54.68
2017-03-31T02:08:55.273Z,54.88
2017-03-31T02:09:35.781Z,54.88
2017-03-31T02:10:16.190Z,54.68
2017-03-31T02:10:56.613Z,54.49
2017-03-31T02:11:37.050Z,54.78
2017-03-31T02:12:17.457Z,54.68
2017-03-31T02:12:57.896Z,54.59
2017-03-31T02:13:38.290Z,54.88
2017-03-31T02:14:18.707Z,55.16
2017-03-31T02:14:59.076Z,54.88
2017-03-31T02:15:39.499Z,54.68
2017-03-31T02:16:20.019Z,55.45
2017-03-31T02:17:00.452Z,55.35
2017-03-31T02:17:40.881Z,54.88
2017-03-31T02:18:21.240Z,54.97
2017-03-31T02:19:01.624Z,55.13
2017-03-31T02:19:42.052Z,55.23
2017-03-31T02:20:22.458Z,55.13
2017-03-31T02:21:02.885Z,55.26
2017-03-31T02:21:43.285Z,55.13
2017-03-31T02:22:23.723Z,55.61
2017-03-31T02:23:04.133Z,55.13
2017-03-31T02:23:44.572Z,55.04
2017-03-31T02:24:25.019Z,55.23
2017-03-31T02:25:05.392Z,55.26
2017-03-31T02:25:45.858Z,55.23
2017-03-31T02:26:26.225Z,55.23
2017-03-31T02:27:06.606Z,55.13
2017-03-31T02:27:47.007Z,55.23
2017-03-31T02:28:27.378Z,54.94
2017-03-31T02:29:07.864Z,55.13
2017-03-31T02:29:48.263Z,55.71
2017-03-31T02:30:28.629Z,55.42
2017-03-31T02:31:09.055Z,55.71
2017-03-31T02:31:49.451Z,55.71
2017-03-31T02:32:29.858Z,55.61
2017-03-31T02:33:10.251Z,55.8
2017-03-31T02:33:50.692Z,55.71
2017-03-31T02:34:31.070Z,55.8
2017-03-31T02:35:11.480Z,55.8
2017-03-31T02:35:51.885Z,55.8
2017-03-31T02:36:32.325Z,55.71
2017-03-31T02:37:12.773Z,55.52
2017-03-31T02:37:53.187Z,55.71
2017-03-31T02:38:33.616Z,55.71
2017-03-31T02:39:14.013Z,55.9
2017-03-31T02:39:54.420Z,55.99
2017-03-31T02:40:34.864Z,55.9
2017-03-31T02:41:15.223Z,55.99
2017-03-31T02:41:55.704Z,55.9
2017-03-31T02:42:36.111Z,56.09
2017-03-31T02:43:16.569Z,56.18
2017-03-31T02:43:56.932Z,55.9
2017-03-31T02:44:37.358Z,56.47
2017-03-31T02:45:17.770Z,56.18
2017-03-31T02:45:58.174Z,56.38
2017-03-31T02:46:38.596Z,56.25
2017-03-31T02:47:19.002Z,56.28
2017-03-31T02:47:59.435Z,56.54
2017-03-31T02:48:39.799Z,56.63
2017-03-31T02:49:20.246Z,56.25
2017-03-31T02:50:00.637Z,56.45
2017-03-31T02:50:41.010Z,56.25
2017-03-31T02:51:21.466Z,56.06
2017-03-31T02:52:01.871Z,56.35
2017-03-31T02:52:42.310Z,56.63
2017-03-31T02:53:22.708Z,57.02
2017-03-31T02:54:03.105Z,57.11
2017-03-31T02:54:43.502Z,57.02
2017-03-31T02:55:23.985Z,56.92
2017-03-31T02:56:04.392Z,56.92
2017-03-31T02:56:44.855Z,57.31
2017-03-31T02:57:25.261Z,57.4
2017-03-31T02:58:05.737Z,57.21
2017-03-31T02:58:46.183Z,57.28
2017-03-31T02:59:26.586Z,56.99
2017-03-31T03:00:07.017Z,57.28
2017-03-31T03:00:47.444Z,57.28
2017-03-31T03:01:27.839Z,57.75
2017-03-31T03:02:08.250Z,57.65
2017-03-31T03:02:48.725Z,57.56
2017-03-31T03:03:29.093Z,57.65
2017-03-31T03:04:09.496Z,57.65
2017-03-31T03:04:49.940Z,58.14
2017-03-31T03:05:30.312Z,57.85
2017-03-31T03:06:10.761Z,57.65
2017-03-31T03:06:51.203Z,57.75
2017-03-31T03:07:31.574Z,58.04
2017-03-31T03:08:11.999Z,58.42
2017-03-31T03:08:52.414Z,58.42
2017-03-31T03:09:32.819Z,58.61
2017-03-31T03:10:13.209Z,58.51
2017-03-31T03:10:53.645Z,58.23
2017-03-31T03:11:34.076Z,58.48
2017-03-31T03:12:14.451Z,58.8
2017-03-31T03:12:54.841Z,58.97
2017-03-31T03:13:35.276Z,58.77
2017-03-31T03:14:17.286Z,59.06
2017-03-31T03:14:57.864Z,59.44
2017-03-31T03:15:38.261Z,58.87
2017-03-31T03:16:18.618Z,59.25
2017-03-31T03:16:59.042Z,59.06
2017-03-31T03:17:39.442Z,59.34
2017-03-31T03:18:19.832Z,58.87
2017-03-31T03:19:00.247Z,59.53
2017-03-31T03:19:40.699Z,59.44
2017-03-31T03:20:21.098Z,59.34
2017-03-31T03:21:01.528Z,59.34
2017-03-31T03:21:41.915Z,59.41
2017-03-31T03:22:22.330Z,59.41
2017-03-31T03:23:02.761Z,59.79
2017-03-31T03:23:43.189Z,59.89
2017-03-31T03:24:23.594Z,59.99
2017-03-31T03:25:04.002Z,60.46
2017-03-31T03:25:44.422Z,60.27
2017-03-31T03:26:24.834Z,60.27
2017-03-31T03:27:05.222Z,60.08
2017-03-31T03:27:45.625Z,60.17
2017-03-31T03:28:26.223Z,60.17
2017-03-31T03:29:06.767Z,59.99
2017-03-31T03:29:47.095Z,60.08
2017-03-31T03:30:27.513Z,60.55
2017-03-31T03:31:08.690Z,60.84
2017-03-31T03:31:49.862Z,60.36
2017-03-31T03:32:31.071Z,60.84
2017-03-31T03:33:12.849Z,60.65
2017-03-31T03:33:53.288Z,60.75
2017-03-31T03:34:38.227Z,60.94
2017-03-31T03:35:21.158Z,61.04
2017-03-31T03:36:01.590Z,61.13
2017-03-31T03:36:42.880Z,61.41
2017-03-31T03:37:23.139Z,61.32
2017-03-31T03:38:06.259Z,61.51
2017-03-31T03:38:48.365Z,61.19
2017-03-31T03:39:31.533Z,61.19
2017-03-31T03:40:11.939Z,61.19
2017-03-31T03:40:52.326Z,61.38
2017-03-31T03:41:32.791Z,61.67
2017-03-31T03:42:13.197Z,61.76
2017-03-31T03:42:53.619Z,62.15
2017-03-31T03:43:34.068Z,62.05
2017-03-31T03:44:14.510Z,62.05
2017-03-31T03:44:54.945Z,62.18
2017-03-31T03:45:35.336Z,61.8
2017-03-31T03:46:15.741Z,61.8
2017-03-31T03:46:56.152Z,61.6
2017-03-31T03:47:36.607Z,61.8
2017-03-31T03:48:17.075Z,61.6
2017-03-31T03:48:57.465Z,61.41
2017-03-31T03:49:37.922Z,61.41
2017-03-31T03:50:18.293Z,61.32
2017-03-31T03:50:58.663Z,61.41
2017-03-31T03:51:39.059Z,61.22
2017-03-31T03:52:19.483Z,61.22
2017-03-31T03:52:59.905Z,61.13
2017-03-31T03:53:41.073Z,61.22
2017-03-31T03:54:21.492Z,61.22
2017-03-31T03:55:01.919Z,61.22
2017-03-31T03:55:42.315Z,61.22
2017-03-31T03:56:22.705Z,61.22
2017-03-31T03:57:03.126Z,61.13
2017-03-31T03:57:43.517Z,61.04
2017-03-31T03:58:23.934Z,61.51
2017-03-31T03:59:04.362Z,61.32
2017-03-31T03:59:44.792Z,61.41
2017-03-31T04:00:25.179Z,61.7
2017-03-31T04:01:05.577Z,61.7
2017-03-31T04:01:46.036Z,61.6
2017-03-31T04:02:26.435Z,61.86
2017-03-31T04:03:06.875Z,61.76
2017-03-31T04:03:47.315Z,62.05
2017-03-31T04:04:27.745Z,62.15
2017-03-31T04:05:08.158Z,62.34
2017-03-31T04:05:48.569Z,62.43
2017-03-31T04:06:28.997Z,62.43
2017-03-31T04:07:09.415Z,62.34
2017-03-31T04:07:49.854Z,62.15
2017-03-31T04:08:30.250Z,62.05
2017-03-31T04:09:11.427Z,62.24
2017-03-31T04:09:51.823Z,62.43
2017-03-31T04:10:32.188Z,62.52
2017-03-31T04:11:12.607Z,62.24
2017-03-31T04:11:53.116Z,62.24
2017-03-31T04:12:33.486Z,62.24
2017-03-31T04:13:13.902Z,62.81
2017-03-31T04:13:54.303Z,62.62
2017-03-31T04:14:34.737Z,62.62
2017-03-31T04:15:15.161Z,63.2
2017-03-31T04:15:55.605Z,63.1
2017-03-31T04:16:35.942Z,62.52
2017-03-31T04:17:16.362Z,62.72
2017-03-31T04:17:56.778Z,63.29
2017-03-31T04:18:37.181Z,63.57
2017-03-31T04:19:17.590Z,63.2
2017-03-31T04:19:58.023Z,63.54
2017-03-31T04:20:38.440Z,63.35
2017-03-31T04:21:18.833Z,63.73
2017-03-31T04:21:59.260Z,63.17
2017-03-31T04:22:39.656Z,63.17
2017-03-31T04:23:20.067Z,63.26
2017-03-31T04:24:00.463Z,63.35
2017-03-31T04:24:40.898Z,63.54
2017-03-31T04:25:21.335Z,63.45
2017-03-31T04:26:01.701Z,63.54
2017-03-31T04:26:42.145Z,63.45
2017-03-31T04:27:22.521Z,63.45
2017-03-31T04:28:02.913Z,63.26
2017-03-31T04:28:43.341Z,63.92
2017-03-31T04:29:23.803Z,63.64
2017-03-31T04:30:04.190Z,63.54
2017-03-31T04:30:44.587Z,63.83
2017-03-31T04:31:25.071Z,63.73
2017-03-31T04:32:06.404Z,63.92
2017-03-31T04:32:46.897Z,63.92
2017-03-31T04:33:28.165Z,63.92
2017-03-31T04:34:08.967Z,63.73
2017-03-31T04:34:49.863Z,63.73
2017-03-31T04:35:32.385Z,63.92
2017-03-31T04:36:13.183Z,63.83
2017-03-31T04:36:53.440Z,64.12
2017-03-31T04:37:34.827Z,64.31
2017-03-31T04:38:15.208Z,64.12
2017-03-31T04:38:55.645Z,64.4
2017-03-31T04:39:36.077Z,64.5
2017-03-31T04:40:16.579Z,64.4
2017-03-31T04:40:56.901Z,64.47
2017-03-31T04:41:37.338Z,64.5
2017-03-31T04:42:17.725Z,64.84
2017-03-31T04:42:58.135Z,64.65
2017-03-31T04:43:38.543Z,64.97
2017-03-31T04:44:18.952Z,64.65
2017-03-31T04:44:59.406Z,64.56
2017-03-31T04:45:39.842Z,64.56
2017-03-31T04:46:20.274Z,65.13
2017-03-31T04:47:00.740Z,65.23
2017-03-31T04:47:41.681Z,65.13
2017-03-31T04:48:22.086Z,64.75
2017-03-31T04:49:02.471Z,64.84
2017-03-31T04:49:42.849Z,65.03
2017-03-31T04:50:23.281Z,64.94
2017-03-31T04:51:03.658Z,65.61
2017-03-31T04:51:44.116Z,65.32
2017-03-31T04:52:24.513Z,65.32
2017-03-31T04:53:04.879Z,65.61
2017-03-31T04:53:45.324Z,65.32
2017-03-31T04:54:25.768Z,65.8
2017-03-31T04:55:06.142Z,65.99
2017-03-31T04:55:46.512Z,66.56
2017-03-31T04:56:26.954Z,66.27
2017-03-31T04:57:07.381Z,66.18
2017-03-31T04:57:47.841Z,66.08
2017-03-31T04:58:28.605Z,66.08
2017-03-31T04:59:09.914Z,66.33
2017-03-31T04:59:53.137Z,66.14
2017-03-31T05:00:35.643Z,66.43
2017-03-31T05:06:30.730Z,67.1
2017-03-31T05:07:19.701Z,67.19
2017-03-31T05:08:07.571Z,66.91
2017-03-31T05:08:55.491Z,66.72
2017-03-31T05:09:43.131Z,66.81
2017-03-31T05:10:31.523Z,67.38
2017-03-31T05:11:20.256Z,67.47
2017-03-31T05:12:08.723Z,67.47
2017-03-31T05:12:57.220Z,67.47
2017-03-31T05:13:43.504Z,67.29
2017-03-31T05:14:23.937Z,67.29
2017-03-31T05:15:04.286Z,67.29
2017-03-31T05:16:55.601Z,67.38
2017-03-31T05:17:44.093Z,67.57
2017-03-31T05:18:32.645Z,67.47
2017-03-31T05:19:21.216Z,67.57
2017-03-31T05:20:09.488Z,67.95
2017-03-31T05:20:57.088Z,67.76
2017-03-31T05:21:44.688Z,67.57
2017-03-31T05:22:33.332Z,67.57
2017-03-31T05:23:21.834Z,67.57
2017-03-31T05:24:10.033Z,67.19
2017-03-31T05:24:58.549Z,67.1
2017-03-31T05:25:43.203Z,67.29
2017-03-31T05:26:23.627Z,67.38
2017-03-31T05:27:04.051Z,67
2017-03-31T05:27:44.465Z,67.29
2017-03-31T05:28:24.880Z,67.29
2017-03-31T05:29:05.276Z,67.29
2017-03-31T05:29:45.677Z,67.19
2017-03-31T05:30:26.120Z,67.29
2017-03-31T05:31:06.565Z,67.19
2017-03-31T05:31:46.991Z,67.29
2017-03-31T05:32:27.381Z,67.38
2017-03-31T05:33:07.885Z,67.38
2017-03-31T05:33:48.334Z,67.38
2017-03-31T05:34:28.798Z,67.29
2017-03-31T05:35:09.338Z,67.47
2017-03-31T05:35:50.050Z,67.67
2017-03-31T05:36:30.467Z,67.76
2017-03-31T05:37:10.820Z,67.76
2017-03-31T05:37:51.442Z,67.47
2017-03-31T05:38:31.910Z,67.86
2017-03-31T05:39:12.533Z,67.76
2017-03-31T05:39:54.657Z,67.95
2017-03-31T05:40:35.172Z,67.47
2017-03-31T05:41:15.670Z,67.67
2017-03-31T05:41:56.200Z,67.76
2017-03-31T05:42:36.751Z,67.47
2017-03-31T05:43:17.386Z,67.47
2017-03-31T05:43:58.042Z,67.76
2017-03-31T05:44:38.371Z,67.76
2017-03-31T05:45:18.894Z,67.67
2017-03-31T05:45:59.846Z,67.86
2017-03-31T05:46:39.784Z,67.76
2017-03-31T05:47:20.378Z,67.47
2017-03-31T05:48:00.734Z,67.57
2017-03-31T05:48:41.194Z,67.67
2017-03-31T05:49:21.646Z,67.76
2017-03-31T05:50:02.237Z,67.76
2017-03-31T05:50:42.982Z,67.76
2017-03-31T05:51:23.577Z,67.67
2017-03-31T05:52:04.029Z,67.86
2017-03-31T05:52:44.592Z,67.8
2017-03-31T05:53:25.025Z,67.57
2017-03-31T05:54:05.594Z,67.7
2017-03-31T05:54:45.942Z,67.89
2017-03-31T05:55:26.412Z,67.7
2017-03-31T05:56:06.777Z,67.51
2017-03-31T05:56:47.563Z,67.32
2017-03-31T05:57:28.133Z,67.13
2017-03-31T05:58:08.759Z,67.32
2017-03-31T05:58:49.131Z,67.22
2017-03-31T05:59:29.950Z,67.32
2017-03-31T06:00:10.735Z,67.51
2017-03-31T06:00:51.429Z,67.22
2017-03-31T06:01:31.908Z,67.61
2017-03-31T06:02:12.473Z,67.32
2017-03-31T06:02:53.851Z,67.07
2017-03-31T06:03:34.190Z,66.97
2017-03-31T06:04:16.124Z,66.97
2017-03-31T06:04:58.351Z,66.88
2017-03-31T06:05:38.435Z,66.97
2017-03-31T06:06:19.030Z,66.97
2017-03-31T06:06:59.320Z,66.97
2017-03-31T06:07:39.775Z,67.26
2017-03-31T06:08:20.398Z,67.16
2017-03-31T06:09:00.890Z,66.97
2017-03-31T06:09:41.195Z,67.07
2017-03-31T06:10:21.756Z,67
2017-03-31T06:11:02.236Z,67.1
2017-03-31T06:11:42.547Z,67.1
2017-03-31T06:12:22.994Z,66.91
2017-03-31T06:13:03.474Z,66.72
2017-03-31T06:13:43.912Z,66.72
2017-03-31T06:14:24.171Z,66.18
2017-03-31T06:15:04.604Z,66.18
2017-03-31T06:15:45.122Z,66.38
2017-03-31T06:16:25.689Z,65.89
2017-03-31T06:17:06.427Z,66.09
2017-03-31T06:17:46.763Z,65.7
2017-03-31T06:18:27.156Z,65.45
2017-03-31T06:19:09.319Z,65.36
2017-03-31T06:19:49.854Z,64.88
2017-03-31T06:20:30.396Z,65.26
2017-03-31T06:21:10.792Z,64.81
2017-03-31T06:21:51.319Z,65.2
2017-03-31T06:22:31.740Z,64.72
2017-03-31T06:23:12.448Z,64.53
2017-03-31T06:23:52.761Z,64.25
2017-03-31T06:24:33.369Z,64.25
2017-03-31T06:25:13.695Z,63.99
2017-03-31T06:25:54.273Z,63.6
2017-03-31T06:26:34.697Z,63.51
2017-03-31T06:27:15.083Z,63.32
2017-03-31T06:27:55.619Z,63.32
2017-03-31T06:28:36.215Z,62.59
2017-03-31T06:29:16.833Z,62.68
2017-03-31T06:29:57.222Z,63.26
2017-03-31T06:30:37.750Z,62.52
2017-03-31T06:31:18.268Z,62.43
2017-03-31T06:31:58.665Z,62.24
2017-03-31T06:32:39.084Z,61.66
2017-03-31T06:33:19.462Z,61.66
2017-03-31T06:33:59.999Z,61.6
2017-03-31T06:34:40.406Z,61.02
2017-03-31T06:35:20.821Z,61.12
2017-03-31T06:36:01.242Z,60.64
2017-03-31T06:36:41.624Z,60.58
2017-03-31T06:37:22.034Z,60.1
2017-03-31T06:38:02.472Z,59.52
2017-03-31T06:38:42.866Z,59.75
2017-03-31T06:39:23.295Z,59.94
2017-03-31T06:40:03.700Z,58.98
2017-03-31T06:40:44.092Z,59.17
2017-03-31T06:41:24.510Z,58.79
2017-03-31T06:42:04.871Z,58.53
2017-03-31T06:42:45.315Z,58.81
2017-03-31T06:43:25.753Z,57.86
2017-03-31T06:44:06.201Z,57.95
2017-03-31T06:44:46.602Z,57.7
2017-03-31T06:45:27.049Z,57.38
2017-03-31T06:46:07.383Z,57.31
2017-03-31T06:46:47.837Z,57.31
2017-03-31T06:47:28.215Z,57.12
2017-03-31T06:48:08.641Z,57.31
2017-03-31T06:48:49.056Z,56.45
2017-03-31T06:49:29.438Z,56.93
2017-03-31T06:50:09.869Z,56.57
2017-03-31T06:50:50.287Z,56.09
2017-03-31T06:51:30.724Z,55.52
2017-03-31T06:52:11.151Z,56
2017-03-31T06:52:51.610Z,55.9
2017-03-31T06:53:32.066Z,55.62
2017-03-31T06:54:13.121Z,55.13
2017-03-31T06:54:53.500Z,55.35
2017-03-31T06:55:33.992Z,54.97
2017-03-31T06:56:14.400Z,54.68
2017-03-31T06:56:54.814Z,54.3
2017-03-31T06:57:35.197Z,54.49
2017-03-31T06:58:15.588Z,53.91
2017-03-31T06:58:56.044Z,53.91
2017-03-31T06:59:36.474Z,53.82
2017-03-31T07:00:16.860Z,53.44
2017-03-31T07:00:57.294Z,53.75
2017-03-31T07:01:37.728Z,53.46
2017-03-31T07:02:18.073Z,53.17
2017-03-31T07:02:59.429Z,53.27
2017-03-31T07:03:39.857Z,53.08
2017-03-31T07:04:20.336Z,52.69
2017-03-31T07:05:00.746Z,52.69
2017-03-31T07:05:41.159Z,52.24
2017-03-31T07:06:21.607Z,52.34
2017-03-31T07:07:01.998Z,52.05
2017-03-31T07:07:42.416Z,51.95
2017-03-31T07:08:22.844Z,51.95
2017-03-31T07:09:03.294Z,51.76
2017-03-31T07:09:43.629Z,51.86
2017-03-31T07:10:24.117Z,51.86
2017-03-31T07:11:04.503Z,51.09
2017-03-31T07:11:44.885Z,51.09
2017-03-31T07:12:25.321Z,51.47
2017-03-31T07:13:05.706Z,51.18
2017-03-31T07:13:46.151Z,50.9
2017-03-31T07:14:26.559Z,51.09
2017-03-31T07:15:07.003Z,50.61
2017-03-31T07:15:47.414Z,50.82
2017-03-31T07:16:27.788Z,50.73
2017-03-31T07:17:08.216Z,50.34
2017-03-31T07:17:48.614Z,50.54
2017-03-31T07:18:29.078Z,49.77
2017-03-31T07:19:09.495Z,49.38
2017-03-31T07:19:49.908Z,49.67
2017-03-31T07:20:30.969Z,49.38
2017-03-31T07:21:11.374Z,49.19
2017-03-31T07:21:52.381Z,48.71
2017-03-31T07:22:32.797Z,49.02
2017-03-31T07:23:13.196Z,48.45
2017-03-31T07:23:53.611Z,48.07
2017-03-31T07:24:34.010Z,48.07
2017-03-31T07:25:14.487Z,47.68
2017-03-31T07:25:54.860Z,47.68
2017-03-31T07:26:35.279Z,47.39
2017-03-31T07:27:15.728Z,47.1
2017-03-31T07:27:56.087Z,46.62
2017-03-31T07:28:36.515Z,46.53
2017-03-31T07:29:16.955Z,46.62
2017-03-31T07:29:58.104Z,46.62
2017-03-31T07:30:38.541Z,46.81
2017-03-31T07:31:19.048Z,46.53
2017-03-31T07:33:08.587Z,45.87
2017-03-31T07:33:52.703Z,45.66
2017-03-31T07:34:34.054Z,45.87
2017-03-31T07:35:14.455Z,45.66
2017-03-31T07:35:54.862Z,45.87
2017-03-31T07:36:35.368Z,45.97
2017-03-31T07:37:15.694Z,45.87
2017-03-31T07:37:56.111Z,45.68
2017-03-31T07:38:36.523Z,45.49
2017-03-31T07:39:16.960Z,45.13
2017-03-31T07:39:58.174Z,45.13
2017-03-31T07:40:38.648Z,44.93
2017-03-31T07:41:19.076Z,44.74
2017-03-31T07:41:59.479Z,44.84
2017-03-31T07:42:39.872Z,44.45
2017-03-31T07:43:20.882Z,44.65
2017-03-31T07:44:01.255Z,44.26
2017-03-31T07:44:41.685Z,44.19
2017-03-31T07:45:22.124Z,43.59
2017-03-31T07:46:02.471Z,43.88
2017-03-31T07:46:42.934Z,43.61
2017-03-31T07:47:23.343Z,43.49
2017-03-31T07:48:03.784Z,43.8
2017-03-31T07:48:44.220Z,43.32
2017-03-31T07:49:24.631Z,43.23
2017-03-31T07:50:05.094Z,43.03
2017-03-31T07:50:45.473Z,43.13
2017-03-31T07:51:25.955Z,43.03
2017-03-31T07:52:08.039Z,42.93
2017-03-31T07:52:48.480Z,42.47
2017-03-31T07:53:28.888Z,42.57
2017-03-31T07:54:10.787Z,42.76
2017-03-31T07:54:51.179Z,42.19
2017-03-31T07:55:33.395Z,41.89
2017-03-31T07:56:14.076Z,42.02
2017-03-31T07:56:54.449Z,41.72
2017-03-31T07:57:35.729Z,41.72
2017-03-31T07:58:16.437Z,41.14
2017-03-31T08:00:29.734Z,41.07
2017-03-31T08:01:11.773Z,40.88
2017-03-31T08:01:54.208Z,40.2
2017-03-31T08:02:35.123Z,40.11
2017-03-31T08:03:15.516Z,40.32
2017-03-31T08:03:55.872Z,39.94
2017-03-31T08:04:36.345Z,39.94
2017-03-31T08:05:17.497Z,39.66
2017-03-31T08:05:59.863Z,39.57
2017-03-31T08:06:41.945Z,39.76
2017-03-31T08:07:22.429Z,39.76
2017-03-31T08:08:03.781Z,39.87
2017-03-31T08:08:44.209Z,40.47
2017-03-31T08:09:25.200Z,40.09
2017-03-31T08:10:05.615Z,40.03
2017-03-31T08:10:47.030Z,39.97
2017-03-31T08:11:28.177Z,38.54
2017-03-31T08:12:08.791Z,37.71
2017-03-31T08:12:49.180Z,36.97
2017-03-31T08:13:29.710Z,36.15
2017-03-31T08:14:10.765Z,34.72
2017-03-31T08:14:51.218Z,33.49
2017-03-31T08:15:31.611Z,32.94
2017-03-31T08:16:12.129Z,32.28
2017-03-31T08:16:52.489Z,31.23
2017-03-31T08:17:33.910Z,30.37
2017-03-31T08:18:14.919Z,29.8
2017-03-31T08:18:55.302Z,29.31
2017-03-31T08:19:35.729Z,28.93
2017-03-31T08:20:16.136Z,28.55
2017-03-31T08:21:05.511Z,28.36
2017-03-31T08:21:45.926Z,28.08
2017-03-31T08:22:27.796Z,27.31
2017-03-31T08:23:09.078Z,27.12
2017-03-31T08:23:50.402Z,26.56
2017-03-31T08:24:30.798Z,25.99
2017-03-31T08:25:11.194Z,25.61
2017-03-31T08:25:52.423Z,24.84
2017-03-31T08:26:33.560Z,24.46
2017-03-31T08:27:14.000Z,23.78
2017-03-31T08:27:54.450Z,23.1
2017-03-31T08:28:34.865Z,22.52
2017-03-31T08:29:15.295Z,22.23
2017-03-31T08:29:56.326Z,22.23
2017-03-31T08:30:36.764Z,21.94
2017-03-31T08:31:17.952Z,21.84
2017-03-31T08:31:58.902Z,21.34
2017-03-31T08:32:39.280Z,20.95
2017-03-31T08:33:20.379Z,20.85
2017-03-31T08:34:01.574Z,20.56
2017-03-31T08:34:42.704Z,20.17
2017-03-31T08:35:23.188Z,19.96
2017-03-31T08:36:03.600Z,19.38
2017-03-31T08:36:44.055Z,19.69
2017-03-31T08:37:24.467Z,19.2
2017-03-31T08:38:04.900Z,19.1
2017-03-31T08:40:05.344Z,18.52
2017-03-31T08:40:45.754Z,18.54
2017-03-31T08:41:29.487Z,17.95
2017-03-31T08:42:10.511Z,17.27
2017-03-31T08:42:51.725Z,16.98
2017-03-31T08:43:33.042Z,16.99
2017-03-31T08:44:13.488Z,16.11
2017-03-31T08:44:57.360Z,15.52
2017-03-31T08:45:38.702Z,15.42
2017-03-31T08:46:19.165Z,15.33
2017-03-31T08:47:00.200Z,15.14
2017-03-31T08:48:47.677Z,14.45
2017-03-31T08:49:28.803Z,14.54
2017-03-31T08:50:09.211Z,14.65
2017-03-31T08:50:50.472Z,14.26
2017-03-31T08:51:31.601Z,14.36
2017-03-31T08:52:12.032Z,13.67
2017-03-31T08:54:30.202Z,12.88
2017-03-31T08:55:11.339Z,12.49
2017-03-31T08:55:53.335Z,12.49
2017-03-31T08:56:36.265Z,12.1
2017-03-31T08:57:17.317Z,12.1
2017-03-31T08:57:57.714Z,12.09
2017-03-31T08:58:38.730Z,12.08
2017-03-31T08:59:20.142Z,11.79
2017-03-31T09:00:01.269Z,11.79